createdAt,value
2019-04-04T00:02:08.923Z,7.20
2019-04-04T00:04:37.773Z,7.07
2019-04-04T00:07:06.730Z,6.97
2019-04-04T00:09:35.718Z,6.87
2019-04-04T00:12:06.126Z,6.70
2019-04-04T00:14:35.200Z,6.70
2019-04-04T00:17:04.120Z,7.40
2019-04-04T00:19:32.973Z,7.10
2019-04-04T00:22:02.946Z,6.83
2019-04-04T00:24:32.608Z,6.40
2019-04-04T00:27:01.462Z,6.23
2019-04-04T00:29:30.298Z,7.07
2019-04-04T00:31:59.220Z,6.90
2019-04-04T00:34:28.724Z,6.33
2019-04-04T00:36:57.793Z,6.10
2019-04-04T00:39:26.647Z,6.50
2019-04-04T00:41:55.485Z,5.80
2019-04-04T00:44:24.387Z,6.73
2019-04-04T00:46:53.257Z,6.80
2019-04-04T00:49:22.095Z,6.73
2019-04-04T00:51:51.087Z,6.53
2019-04-04T00:54:19.968Z,6.27
2019-04-04T00:56:49.291Z,6.17
2019-04-04T00:59:18.203Z,6.27
2019-04-04T01:01:47.064Z,6.80
2019-04-04T01:04:16.049Z,5.93
2019-04-04T01:06:44.933Z,6.83
2019-04-04T01:09:13.898Z,6.40
2019-04-04T01:11:42.871Z,6.57
2019-04-04T01:14:11.785Z,6.20
2019-04-04T01:16:40.641Z,6.50
2019-04-04T01:19:09.975Z,6.13
2019-04-04T01:21:39.372Z,6.50
2019-04-04T01:24:08.298Z,6.73
2019-04-04T01:26:38.209Z,5.80
2019-04-04T01:29:10.158Z,6.90
2019-04-04T01:31:37.746Z,6.67
2019-04-04T01:34:06.748Z,6.20
2019-04-04T01:36:35.658Z,6.60
2019-04-04T01:39:06.253Z,6.07
2019-04-04T01:41:36.253Z,6.13
2019-04-04T01:44:05.968Z,6.63
2019-04-04T01:46:34.811Z,6.07
2019-04-04T01:49:03.731Z,6.00
2019-04-04T01:51:32.602Z,6.20
2019-04-04T01:54:01.735Z,6.83
2019-04-04T01:56:30.578Z,6.00
2019-04-04T01:58:59.578Z,5.60
2019-04-04T02:01:28.608Z,5.83
2019-04-04T02:03:57.440Z,6.20
2019-04-04T02:06:28.365Z,5.90
2019-04-04T02:08:57.197Z,6.47
2019-04-04T02:11:26.135Z,6.83
2019-04-04T02:13:54.977Z,6.70
2019-04-04T02:16:23.840Z,6.93
2019-04-04T02:18:53.893Z,6.53
2019-04-04T02:21:23.377Z,6.40
2019-04-04T02:23:52.311Z,6.10
2019-04-04T02:26:21.168Z,6.20
2019-04-04T02:28:50.086Z,5.83
2019-04-04T02:31:21.146Z,5.83
2019-04-04T02:33:50.184Z,5.97
2019-04-04T02:36:19.050Z,5.60
2019-04-04T02:39:05.602Z,6.17
2019-04-04T02:41:34.760Z,6.23
2019-04-04T02:44:03.965Z,6.03
2019-04-04T02:46:32.953Z,6.00
2019-04-04T02:49:01.950Z,5.73
2019-04-04T02:51:32.383Z,6.13
2019-04-04T02:54:01.325Z,6.00
2019-04-04T02:56:32.653Z,5.70
2019-04-04T02:59:00.957Z,5.30
2019-04-04T03:01:32.111Z,5.47
2019-04-04T03:04:00.629Z,5.50
2019-04-04T03:06:29.635Z,6.03
2019-04-04T03:08:58.657Z,5.57
2019-04-04T03:11:27.577Z,5.27
2019-04-04T03:13:56.599Z,5.20
2019-04-04T03:16:25.603Z,5.90
2019-04-04T03:18:54.474Z,5.90
2019-04-04T03:21:23.723Z,5.23
2019-04-04T03:23:52.892Z,6.33
2019-04-04T03:26:21.741Z,6.13
2019-04-04T03:28:50.753Z,6.83
2019-04-04T03:31:19.686Z,7.37
2019-04-04T03:33:48.745Z,7.47
2019-04-04T03:36:17.692Z,8.30
2019-04-04T03:38:47.399Z,8.27
2019-04-04T03:41:16.537Z,8.90
2019-04-04T03:43:48.087Z,9.93
2019-04-04T03:46:15.980Z,9.90
2019-04-04T03:48:44.823Z,9.17
2019-04-04T03:51:13.686Z,9.73
2019-04-04T03:53:49.498Z,9.30
2019-04-04T03:56:20.046Z,11.13
2019-04-04T03:58:48.965Z,9.93
2019-04-04T04:01:17.946Z,10.00
2019-04-04T04:03:46.802Z,10.57
2019-04-04T04:06:15.732Z,11.40
2019-04-04T04:08:44.613Z,10.27
2019-04-04T04:11:13.638Z,11.37
2019-04-04T04:13:42.625Z,10.10
2019-04-04T04:16:11.549Z,10.90
2019-04-04T04:18:40.488Z,11.73
2019-04-04T04:21:10.876Z,11.23
2019-04-04T04:23:40.202Z,10.93
2019-04-04T04:26:09.886Z,12.07
2019-04-04T04:28:39.150Z,11.13
2019-04-04T04:31:08.041Z,11.67
2019-04-04T04:33:36.899Z,10.97
2019-04-04T04:36:09.485Z,11.37
2019-04-04T04:38:36.513Z,10.33
2019-04-04T04:41:05.371Z,11.80
2019-04-04T04:43:34.315Z,10.60
2019-04-04T04:46:03.421Z,10.73
2019-04-04T04:48:32.472Z,11.77
2019-04-04T04:51:01.386Z,11.30
2019-04-04T04:53:30.345Z,10.83
2019-04-04T04:56:00.542Z,11.57
2019-04-04T04:58:29.783Z,11.57
2019-04-04T05:00:58.669Z,11.53
2019-04-04T05:03:27.543Z,10.57
2019-04-04T05:05:56.459Z,12.00
2019-04-04T05:08:25.360Z,12.27
2019-04-04T05:10:54.236Z,11.53
2019-04-04T05:13:25.098Z,11.70
2019-04-04T05:15:53.860Z,12.23
2019-04-04T05:18:22.828Z,11.47
2019-04-04T05:20:51.758Z,11.90
2019-04-04T05:23:20.740Z,12.13
2019-04-04T05:25:53.856Z,11.83
2019-04-04T05:28:20.369Z,12.47
2019-04-04T05:30:49.285Z,13.03
2019-04-04T05:33:18.217Z,11.33
2019-04-04T05:35:47.223Z,12.30
2019-04-04T05:38:16.144Z,11.37
2019-04-04T05:40:45.260Z,11.70
2019-04-04T05:43:15.231Z,12.63
2019-04-04T05:45:45.210Z,11.73
2019-04-04T05:48:17.933Z,11.73
2019-04-04T05:50:47.110Z,12.07
2019-04-04T05:53:17.239Z,12.13
2019-04-04T05:55:46.448Z,11.77
2019-04-04T05:58:15.354Z,11.87
2019-04-04T06:00:46.442Z,12.20
2019-04-04T06:03:15.922Z,13.03
2019-04-04T06:05:45.204Z,11.53
2019-04-04T06:08:14.086Z,11.50
2019-04-04T06:10:43.148Z,11.63
2019-04-04T06:13:12.008Z,11.17
2019-04-04T06:15:40.949Z,11.53
2019-04-04T06:18:11.770Z,10.97
2019-04-04T06:20:40.716Z,11.33
2019-04-04T06:23:09.727Z,10.47
2019-04-04T06:25:38.779Z,10.13
2019-04-04T06:28:07.624Z,10.87
2019-04-04T06:30:43.110Z,10.13
2019-04-04T06:33:07.287Z,9.60
2019-04-04T06:35:39.516Z,9.83
2019-04-04T06:38:07.024Z,10.23
2019-04-04T06:40:36.125Z,10.73
2019-04-04T06:43:10.581Z,10.57
2019-04-04T06:45:36.270Z,10.60
2019-04-04T06:48:05.225Z,11.20
2019-04-04T06:50:34.192Z,9.90
2019-04-04T06:53:03.149Z,9.77
2019-04-04T06:55:32.107Z,10.47
2019-04-04T06:58:01.065Z,11.03
2019-04-04T07:00:30.104Z,10.83
2019-04-04T07:02:58.951Z,12.17
2019-04-04T07:05:27.983Z,11.33
2019-04-04T07:07:56.824Z,10.50
2019-04-04T07:10:25.776Z,11.47
2019-04-04T07:13:09.374Z,11.60
2019-04-04T07:15:25.320Z,10.73
2019-04-04T07:17:54.225Z,9.97
2019-04-04T07:20:23.066Z,9.93
2019-04-04T07:22:52.009Z,10.73
2019-04-04T07:25:20.923Z,9.57
2019-04-04T07:27:50.010Z,10.20
2019-04-04T07:30:19.132Z,10.10
2019-04-04T07:32:47.975Z,9.70
2019-04-04T07:35:17.639Z,10.53
2019-04-04T07:37:46.972Z,9.90
2019-04-04T07:40:15.956Z,9.80
2019-04-04T07:42:47.063Z,10.10
2019-04-04T07:45:15.664Z,10.10
2019-04-04T07:47:46.714Z,10.30
2019-04-04T07:50:16.464Z,10.10
2019-04-04T07:52:45.485Z,9.70
2019-04-04T07:55:14.540Z,9.93
2019-04-04T07:57:43.461Z,9.63
2019-04-04T08:00:13.164Z,11.10
2019-04-04T08:02:43.693Z,10.20
2019-04-04T08:05:13.262Z,10.50
2019-04-04T08:07:42.505Z,10.07
2019-04-04T08:10:20.335Z,9.73
2019-04-04T08:12:42.509Z,9.60
2019-04-04T08:15:11.601Z,10.17
2019-04-04T08:17:40.474Z,9.23
2019-04-04T08:20:09.485Z,9.57
2019-04-04T08:22:39.799Z,9.60
2019-04-04T08:25:09.119Z,9.10
2019-04-04T08:27:38.040Z,9.50
2019-04-04T08:30:07.527Z,9.40
2019-04-04T08:32:36.537Z,9.20
2019-04-04T08:35:06.185Z,8.73
2019-04-04T08:37:35.268Z,8.90
2019-04-04T08:40:05.478Z,7.87
2019-04-04T08:42:34.385Z,8.57
2019-04-04T08:45:03.436Z,8.57
2019-04-04T08:47:32.352Z,8.53
2019-04-04T08:50:01.290Z,8.83
2019-04-04T08:52:30.582Z,9.33
2019-04-04T08:54:59.481Z,8.47
2019-04-04T08:57:28.509Z,8.23
2019-04-04T08:59:57.486Z,9.93
2019-04-04T09:02:28.933Z,8.00
2019-04-04T09:05:10.886Z,8.73
2019-04-04T09:07:28.537Z,9.03
2019-04-04T09:09:57.542Z,8.73
2019-04-04T09:12:26.410Z,8.73
2019-04-04T09:14:55.281Z,9.40
2019-04-04T09:17:24.298Z,8.83
2019-04-04T09:19:53.232Z,8.57
2019-04-04T09:22:24.152Z,8.70
2019-04-04T09:24:52.876Z,8.87
2019-04-04T09:27:21.910Z,8.00
2019-04-04T09:29:50.926Z,8.60
2019-04-04T09:32:19.926Z,8.63
2019-04-04T09:34:48.929Z,9.90
2019-04-04T09:37:19.874Z,11.43
2019-04-04T09:39:49.011Z,11.00
2019-04-04T09:42:18.032Z,9.27
2019-04-04T09:44:47.173Z,9.17
2019-04-04T09:47:16.137Z,10.27
2019-04-04T09:49:45.077Z,9.83
2019-04-04T09:52:16.409Z,10.60
2019-04-04T09:54:45.468Z,10.93
2019-04-04T09:57:14.344Z,11.30
2019-04-04T09:59:44.416Z,12.82
2019-04-04T10:02:13.473Z,12.13
2019-04-04T10:04:42.417Z,12.60
2019-04-04T10:07:11.385Z,12.10
2019-04-04T10:09:40.449Z,12.17
2019-04-04T10:12:09.599Z,13.23
2019-04-04T10:14:38.541Z,12.57
2019-04-04T10:17:07.618Z,14.03
2019-04-04T10:19:36.493Z,13.27
2019-04-04T10:22:07.003Z,13.47
2019-04-04T10:24:36.406Z,13.57
2019-04-04T10:27:05.420Z,13.57
2019-04-04T10:29:34.417Z,13.60
2019-04-04T10:32:03.445Z,14.23
2019-04-04T10:34:32.529Z,13.77
2019-04-04T10:37:01.610Z,14.53
2019-04-04T10:39:32.781Z,15.67
2019-04-04T10:42:01.384Z,14.47
2019-04-04T10:44:30.369Z,14.50
2019-04-04T10:46:59.505Z,14.80
2019-04-04T10:49:28.598Z,14.50
2019-04-04T10:51:57.570Z,14.93
2019-04-04T10:54:28.356Z,15.23
2019-04-04T10:56:57.467Z,14.27
2019-04-04T10:59:29.509Z,15.87
2019-04-04T11:02:11.281Z,15.07
2019-04-04T11:04:42.434Z,16.10
2019-04-04T11:07:11.457Z,16.13
2019-04-04T11:09:42.060Z,15.33
2019-04-04T11:12:11.292Z,15.70
2019-04-04T11:14:40.338Z,14.80
2019-04-04T11:17:09.322Z,15.70
2019-04-04T11:19:39.776Z,15.33
2019-04-04T11:22:08.729Z,14.70
2019-04-04T11:24:37.726Z,16.10
2019-04-04T11:27:06.687Z,15.87
2019-04-04T11:29:36.791Z,16.10
2019-04-04T11:32:06.667Z,16.00
2019-04-04T11:34:37.368Z,14.77
2019-04-04T11:37:08.458Z,15.83
2019-04-04T11:39:37.417Z,14.97
2019-04-04T11:42:06.881Z,15.03
2019-04-04T11:44:37.238Z,15.90
2019-04-04T11:47:06.187Z,17.40
2019-04-04T11:49:36.545Z,15.63
2019-04-04T11:52:05.616Z,15.47
2019-04-04T11:54:36.808Z,14.67
2019-04-04T11:57:07.208Z,16.03
2019-04-04T11:59:37.433Z,16.67
2019-04-04T12:02:08.260Z,15.20
2019-04-04T12:04:37.292Z,15.83
2019-04-04T12:07:06.145Z,15.20
2019-04-04T12:09:35.013Z,14.23
2019-04-04T12:12:03.976Z,16.20
2019-04-04T12:14:34.000Z,15.23
2019-04-04T12:17:02.935Z,17.00
2019-04-04T12:22:25.085Z,15.20
2019-04-04T12:24:54.172Z,14.83
2019-04-04T12:27:23.058Z,15.17
2019-04-04T12:29:53.604Z,14.13
2019-04-04T12:32:22.505Z,13.77
2019-04-04T12:34:56.322Z,13.60
2019-04-04T12:37:27.061Z,13.80
2019-04-04T12:40:01.410Z,13.17
2019-04-04T12:42:31.004Z,15.13
2019-04-04T12:45:00.061Z,15.10
2019-04-04T12:47:32.461Z,14.50
2019-04-04T12:50:01.453Z,14.13
2019-04-04T12:52:30.610Z,14.07
2019-04-04T12:54:59.504Z,13.43
2019-04-04T12:57:29.834Z,13.33
2019-04-04T13:00:01.258Z,12.80
2019-04-04T13:02:30.281Z,13.30
2019-04-04T13:05:00.671Z,13.77
2019-04-04T13:07:30.133Z,13.70
2019-04-04T13:10:10.882Z,12.33
2019-04-04T13:12:31.701Z,11.70
2019-04-04T13:15:00.691Z,12.13
2019-04-04T13:17:29.804Z,13.10
2019-04-04T13:20:02.292Z,12.70
2019-04-04T13:22:34.340Z,12.10
2019-04-04T13:25:03.894Z,11.53
2019-04-04T13:27:34.101Z,12.17
2019-04-04T13:30:03.157Z,12.20
2019-04-04T13:39:36.727Z,12.97
2019-04-04T13:42:41.824Z,14.47
2019-04-04T13:45:14.026Z,13.53
2019-04-04T13:47:48.161Z,12.80
2019-04-04T13:50:19.927Z,12.80
2019-04-04T13:52:47.914Z,13.23
2019-04-04T13:55:18.973Z,12.43
2019-04-04T13:57:49.177Z,11.77
2019-04-04T14:00:18.609Z,12.73
2019-04-04T14:02:48.350Z,13.17
2019-04-04T14:05:17.489Z,13.10
2019-04-04T14:07:46.532Z,13.77
2019-04-04T14:10:21.503Z,12.47
2019-04-04T14:12:51.593Z,12.23
2019-04-04T14:15:20.554Z,12.73
2019-04-04T14:17:49.574Z,13.03
2019-04-04T14:20:20.279Z,13.13
2019-04-04T14:22:54.814Z,12.13
2019-04-04T14:25:23.738Z,12.70
2019-04-04T14:27:52.686Z,12.13
2019-04-04T14:30:25.016Z,11.07
2019-04-04T14:32:54.185Z,11.90
2019-04-04T14:35:24.394Z,11.30
2019-04-04T14:37:56.962Z,11.60
2019-04-04T14:40:27.913Z,10.97
2019-04-04T14:42:56.948Z,11.93
2019-04-04T14:45:25.905Z,10.83
2019-04-04T14:47:54.937Z,10.40
2019-04-04T14:50:24.047Z,11.00
2019-04-04T14:52:55.143Z,10.30
2019-04-04T14:55:24.430Z,9.47
2019-04-04T14:57:53.508Z,9.20
2019-04-04T15:00:22.972Z,10.73
2019-04-04T15:02:51.864Z,8.73
2019-04-04T15:05:20.963Z,9.93
2019-04-04T15:07:50.033Z,8.57
2019-04-04T15:10:19.091Z,8.20
2019-04-04T15:12:48.018Z,8.83
2019-04-04T15:15:17.205Z,8.23
2019-04-04T15:17:46.259Z,8.50
2019-04-04T15:20:14.933Z,6.93
2019-04-04T15:22:52.038Z,7.07
2019-04-04T15:25:21.713Z,7.47
2019-04-04T15:27:50.679Z,7.10
2019-04-04T15:30:19.769Z,7.80
2019-04-04T15:32:48.742Z,6.87
2019-04-04T15:35:17.781Z,6.80
2019-04-04T15:37:48.672Z,6.87
2019-04-04T15:40:18.233Z,6.57
2019-04-04T15:42:47.205Z,7.00
2019-04-04T15:45:16.255Z,5.63
2019-04-04T15:47:45.193Z,5.90
2019-04-04T15:50:14.385Z,5.37
2019-04-04T15:52:43.257Z,5.37
2019-04-04T15:55:23.205Z,5.37
2019-04-04T15:57:57.246Z,4.60
2019-04-04T16:00:28.537Z,4.03
2019-04-04T16:02:57.513Z,4.63
2019-04-04T16:05:26.744Z,4.10
2019-04-04T16:07:56.792Z,3.90
2019-04-04T16:10:25.865Z,4.30
2019-04-04T16:12:54.883Z,4.17
2019-04-04T16:15:24.242Z,4.07
2019-04-04T16:17:53.225Z,4.30
2019-04-04T16:20:22.385Z,4.27
2019-04-04T16:22:51.297Z,4.33
2019-04-04T16:25:20.329Z,3.80
2019-04-04T16:27:49.517Z,3.60
2019-04-04T16:30:18.580Z,3.40
2019-04-04T16:32:47.529Z,3.80
2019-04-04T16:35:16.577Z,3.73
2019-04-04T16:37:45.569Z,3.23
2019-04-04T16:40:15.161Z,3.60
2019-04-04T16:42:44.324Z,3.80
2019-04-04T16:45:13.687Z,3.77
2019-04-04T16:47:43.204Z,4.17
2019-04-04T16:50:12.405Z,4.23
2019-04-04T16:52:41.380Z,3.90
2019-04-04T16:55:10.641Z,3.70
2019-04-04T16:57:39.525Z,3.27
2019-04-04T17:00:11.332Z,3.27
2019-04-04T17:02:40.389Z,3.10
2019-04-04T17:05:11.160Z,2.87
2019-04-04T17:07:40.464Z,2.83
2019-04-04T17:10:09.864Z,2.90
2019-04-04T17:12:38.821Z,2.73
2019-04-04T17:15:10.769Z,2.23
2019-04-04T17:17:41.845Z,2.57
2019-04-04T17:20:11.570Z,2.60
2019-04-04T17:22:40.518Z,2.40
2019-04-04T17:25:09.798Z,2.50
2019-04-04T17:27:38.768Z,2.40
2019-04-04T17:30:08.362Z,2.40
2019-04-04T17:32:37.508Z,2.10
2019-04-04T17:35:07.432Z,2.30
2019-04-04T17:37:37.161Z,2.30
2019-04-04T17:40:07.198Z,2.00
2019-04-04T17:42:36.653Z,2.20
2019-04-04T17:45:08.124Z,2.30
2019-04-04T17:47:37.543Z,2.20
2019-04-04T17:50:09.031Z,2.40
2019-04-04T17:52:37.991Z,2.57
2019-04-04T17:55:07.337Z,2.13
2019-04-04T17:57:37.532Z,2.80
2019-04-04T18:00:09.429Z,3.13
2019-04-04T18:02:38.595Z,3.97
2019-04-04T18:05:08.009Z,3.40
2019-04-04T18:07:40.030Z,3.57
2019-04-04T18:10:09.526Z,4.23
2019-04-04T18:12:40.574Z,4.47
2019-04-04T18:15:09.718Z,4.97
2019-04-04T18:17:38.646Z,4.13
2019-04-04T18:20:09.747Z,5.00
2019-04-04T18:22:42.297Z,4.90
2019-04-04T18:25:14.760Z,4.00
2019-04-04T18:27:43.721Z,4.73
2019-04-04T18:30:14.825Z,4.33
2019-04-04T18:32:43.666Z,4.43
2019-04-04T18:35:12.932Z,4.07
2019-04-04T18:37:41.982Z,3.87
2019-04-04T18:40:12.252Z,3.80
2019-04-04T18:42:52.691Z,3.67
2019-04-04T18:45:12.602Z,3.53
2019-04-04T18:47:41.599Z,3.43
2019-04-04T18:50:11.798Z,4.23
2019-04-04T18:52:40.998Z,4.27
2019-04-04T18:55:19.509Z,4.10
2019-04-04T18:57:40.866Z,4.50
2019-04-04T19:00:14.069Z,3.67
2019-04-04T19:02:44.265Z,3.87
2019-04-04T19:05:13.790Z,3.70
2019-04-04T19:07:44.460Z,3.40
2019-04-04T19:10:13.619Z,3.70
2019-04-04T19:12:42.570Z,3.73
2019-04-04T19:15:13.051Z,3.80
2019-04-04T19:17:42.134Z,4.17
2019-04-04T19:20:12.121Z,3.67
2019-04-04T19:22:41.210Z,3.80
2019-04-04T19:25:10.269Z,3.67
2019-04-04T19:27:39.261Z,3.20
2019-04-04T19:30:10.201Z,3.40
2019-04-04T19:32:39.196Z,3.83
2019-04-04T19:35:08.788Z,3.73
2019-04-04T19:37:37.807Z,4.00
2019-04-04T19:40:08.385Z,5.00
2019-04-04T19:42:37.252Z,4.30
2019-04-04T19:45:06.870Z,4.20
2019-04-04T19:47:35.833Z,4.27
2019-04-04T19:50:05.199Z,4.20
2019-04-04T19:52:34.085Z,4.57
2019-04-04T19:55:03.047Z,4.73
2019-04-04T19:57:31.912Z,5.30
2019-04-04T20:00:09.307Z,6.20
2019-04-04T20:02:40.639Z,5.00
2019-04-04T20:05:10.097Z,6.23
2019-04-04T20:07:38.966Z,5.83
2019-04-04T20:10:08.275Z,4.93
2019-04-04T20:12:37.321Z,5.70
2019-04-04T20:15:06.623Z,5.80
2019-04-04T20:17:35.657Z,6.70
2019-04-04T20:20:04.996Z,8.47
2019-04-04T20:22:36.913Z,5.80
2019-04-04T20:25:06.009Z,6.50
2019-04-04T20:27:34.917Z,6.17
2019-04-04T20:30:04.357Z,5.87
2019-04-04T20:32:33.316Z,6.17
2019-04-04T20:35:02.238Z,6.37
2019-04-04T20:37:31.130Z,6.53
2019-04-04T20:40:00.002Z,7.20
2019-04-04T20:42:28.875Z,7.17
2019-04-04T20:44:57.717Z,6.70
2019-04-04T20:47:26.592Z,7.03
2019-04-04T20:49:55.580Z,6.73
2019-04-04T21:04:11.404Z,7.90
2019-04-04T21:06:40.389Z,7.37
2019-04-04T21:09:09.340Z,8.60
2019-04-04T21:11:38.291Z,10.57
2019-04-04T21:14:07.235Z,7.57
2019-04-04T21:16:36.081Z,9.00
2019-04-04T21:19:05.119Z,9.73
2019-04-04T21:21:34.052Z,8.37
2019-04-04T21:24:02.892Z,7.80
2019-04-04T21:26:31.891Z,7.70
2019-04-04T21:29:00.825Z,7.17
2019-04-04T21:31:29.661Z,7.13
2019-04-04T21:33:58.528Z,7.13
2019-04-04T21:36:27.437Z,7.17
2019-04-04T21:38:56.440Z,7.37
2019-04-04T21:41:25.296Z,7.50
2019-04-04T21:43:54.245Z,7.50
2019-04-04T21:46:23.168Z,7.03
2019-04-04T21:48:52.044Z,7.20
2019-04-04T21:51:21.052Z,7.30
2019-04-04T21:53:49.974Z,7.80
2019-04-04T21:56:18.844Z,7.83
2019-04-04T21:58:47.757Z,8.00
2019-04-04T22:01:16.828Z,8.03
2019-04-04T22:03:45.877Z,7.40
2019-04-04T22:06:14.824Z,7.97
2019-04-04T22:08:43.741Z,10.27
2019-04-04T22:11:12.676Z,9.07
2019-04-04T22:13:41.584Z,9.67
2019-04-04T22:16:10.432Z,12.63
2019-04-04T22:18:39.361Z,8.07
2019-04-04T22:21:08.500Z,9.27
2019-04-04T22:23:37.412Z,8.10
2019-04-04T22:26:06.289Z,7.60
2019-04-04T22:28:35.133Z,7.83
2019-04-04T22:31:04.205Z,8.10
2019-04-04T22:33:33.086Z,7.40
2019-04-04T22:36:01.967Z,7.73
2019-04-04T22:38:30.943Z,7.37
2019-04-04T22:40:59.912Z,7.10
2019-04-04T22:43:28.897Z,7.77
2019-04-04T22:45:57.829Z,7.57
2019-04-04T22:48:26.810Z,6.87
2019-04-04T22:50:55.668Z,7.60
2019-04-04T22:53:24.645Z,7.17
2019-04-04T22:55:53.640Z,7.50
2019-04-04T22:58:28.166Z,7.40
2019-04-04T23:00:53.267Z,7.10
2019-04-04T23:03:23.272Z,7.73
2019-04-04T23:05:52.203Z,7.83
2019-04-04T23:08:21.058Z,7.50
2019-04-04T23:10:50.018Z,8.27
2019-04-04T23:13:18.962Z,7.10
2019-04-04T23:15:47.852Z,7.60
2019-04-04T23:18:16.721Z,6.57
2019-04-04T23:20:45.548Z,6.73
2019-04-04T23:23:14.464Z,6.13
2019-04-04T23:25:43.312Z,7.27
2019-04-04T23:28:12.154Z,6.97
2019-04-04T23:30:41.004Z,6.90
2019-04-04T23:33:09.950Z,7.10
2019-04-04T23:35:38.795Z,6.73
2019-04-04T23:38:07.662Z,6.87
2019-04-04T23:40:36.658Z,6.77
2019-04-04T23:43:05.579Z,6.83
2019-04-04T23:45:34.421Z,6.80
2019-04-04T23:48:03.276Z,7.00
2019-04-04T23:50:32.119Z,7.07
2019-04-04T23:53:01.035Z,7.10
2019-04-04T23:55:29.977Z,6.53
2019-04-04T23:57:58.827Z,6.30
